デンパサール国際空港の過去48時間の天気

デンパサール国際空港 (Ngurah Rai International Airport)

現在時刻: 3/22 08:57 WITA (3/22 00:57 UTC) 以下の時間は現地時間です。

過去48時間のMETAR気象情報
時間 風向 風速(m/s) 視程 気温(℃) 湿度(%) 気圧(hPa) 天気現象
22 08:30 西北西 3 10km以上 29 84 1009
22 08:00 北北西 2 10km以上 28 84 1009
22 07:30 北北東 2 10km以上 27 89 1009
22 07:00 北北東 2 10km以上 26 94 1008
22 06:30 北北東 2 10km以上 26 94 1008
22 06:00 2 10km以上 26 94 1008
22 05:00 北西 2 10km以上 27 89 1008
22 04:30 西北西 4 10km以上 27 89 1008
22 03:00 西 9 2500m 27 94 1009 雷雨
22 02:30 西北西 4 6000m 27 94 1009 弱い雷雨
22 02:00 西 5 2500m 25 100 1009 雷雨
22 01:30 西南西 4 2500m 26 94 1009 雷雨
22 01:00 西 4 8000m 26 100 1009
22 00:30 西北西 3 8000m 27 89 1009
22 00:00 北北西 2 8000m 27 94 1010
21 23:30 2 8000m 27 94 1010
21 23:00 北東 2 8000m 26 100 1010
21 22:00 不定 2 5000m 26 100 1010 弱い雷雨
21 21:30 西北西 3 1500m 27 94 1010 雷雨
21 21:00 北北西 2 8000m 27 94 1009
21 20:30 西北西 3 8000m 27 94 1008
21 20:00 - - 8000m 27 94 1008
21 19:30 西 5 5000m 26 94 1008 弱い雨
21 19:00 西北西 5 5000m 25 94 1007 弱い雷雨
21 18:30 西北西 8 5000m 26 94 1007 弱い雷雨
21 18:00 西 7 10km以上 29 84 1006
21 17:30 西 7 10km以上 30 79 1006
21 17:00 西 7 10km以上 30 79 1006
21 16:30 西 7 10km以上 30 79 1006
21 16:00 西 6 10km以上 31 75 1006
21 15:30 西 6 10km以上 31 75 1006
21 15:00 西南西 7 10km以上 31 75 1006
21 14:30 西 6 10km以上 31 75 1006
21 14:00 西 6 10km以上 31 75 1007
21 13:30 西 5 10km以上 31 75 1007
21 13:00 西北西 5 10km以上 31 75 1007
21 12:30 西北西 6 10km以上 31 79 1008
21 12:00 西 6 10km以上 31 75 1008
21 11:30 西北西 5 10km以上 31 75 1008
21 11:00 西北西 5 10km以上 31 75 1009
21 10:30 西北西 4 10km以上 30 79 1009
21 10:00 西北西 4 10km以上 30 79 1009
21 09:30 西 3 10km以上 30 79 1009
21 09:00 西北西 3 10km以上 29 84 1009
21 08:30 西 3 10km以上 29 84 1009
21 08:00 西 4 10km以上 29 84 1008
21 07:30 西 5 10km以上 28 89 1008
21 07:00 西北西 5 10km以上 28 84 1008
21 06:30 2 10km以上 28 89 1008
21 06:00 2 10km以上 27 94 1007
21 05:30 2 10km以上 27 94 1007
21 05:00 北東 2 10km以上 27 94 1007
21 04:30 北北東 2 10km以上 27 100 1007
21 04:00 不定 1 10km以上 27 100 1006
21 03:30 北西 3 10km以上 28 84 1007
21 03:00 北西 3 10km以上 28 89 1007
21 02:30 北西 4 10km以上 28 89 1007
21 02:00 西北西 4 10km以上 28 89 1007
21 01:30 2 10km以上 27 100 1008
21 01:00 北北西 2 10km以上 27 89 1008
21 00:30 3 10km以上 27 94 1009
21 00:00 不定 1 10km以上 27 89 1009
20 23:30 不定 1 8000m 27 94 1009
20 23:00 北北西 3 8000m 27 94 1009 弱い雨
20 22:30 2 10km以上 27 94 1009
20 22:00 北北西 4 8000m 27 94 1009
20 21:30 2 5000m 27 89 1009 弱い雨
20 21:00 北西 4 5000m 27 100 1008
20 20:30 西 6 10km以上 29 84 1008
20 20:00 西 4 10km以上 29 84 1007
20 19:30 西 4 10km以上 29 84 1007
20 19:00 西 4 10km以上 29 84 1007
20 18:30 西 4 10km以上 29 84 1006
20 18:00 西 5 10km以上 29 84 1006
20 17:30 西南西 5 10km以上 30 79 1006
20 17:00 西南西 5 10km以上 30 75 1005
20 16:30 西南西 5 10km以上 31 75 1005
20 16:00 西南西 6 10km以上 31 70 1005
20 15:30 西南西 6 10km以上 31 70 1005
20 15:00 西南西 5 10km以上 31 75 1005
20 14:30 西南西 6 10km以上 31 75 1005
20 14:00 西南西 6 10km以上 31 75 1006
20 13:30 西 6 10km以上 31 75 1006
20 13:00 西 5 10km以上 31 75 1007
20 12:30 西 6 10km以上 31 79 1007
20 12:00 西 6 10km以上 31 75 1007
20 11:30 西北西 7 10km以上 31 70 1008
20 11:00 西北西 5 10km以上 30 79 1008
20 10:30 北西 4 10km以上 29 79 1008
20 10:00 西北西 4 10km以上 29 84 1008
20 09:30 西北西 4 10km以上 29 79 1009
20 09:00 不定 1 10km以上 29 79 1009
WADD 220030Z 30005KT 9999 FEW017 29/26 Q1009 NOSIG
WADD 220000Z 33004KT 9999 FEW017 28/25 Q1009 NOSIG
WADD 212330Z 02004KT 9999 FEW017 27/25 Q1009 NOSIG
WADD 212300Z 03003KT 9999 FEW017 26/25 Q1008 NOSIG
WADD 212230Z 02003KT 9999 FEW017 26/25 Q1008 NOSIG
WADD 212200Z 35003KT 9999 SCT017 26/25 Q1008 NOSIG
WADD 212100Z 31004KT 9999 FEW015CB SCT016 27/25 Q1008 RETS NOSIG
WADD 212030Z 30008KT 9999 TS FEW015CB SCT016 27/25 Q1008 RERA NOSIG
WADD 211900Z 27017KT 2500 TSRA BKN013 FEW015CB 27/26 Q1009 NOSIG
WADD 211830Z 29008KT 6000 -TSRA FEW015CB SCT015 27/26 Q1009 NOSIG
WADD 211800Z 26010KT 2500 TSRA BKN013 FEW015CB 25/25 Q1009 TEMPO TL1900 5000 TSRA
WADD 211730Z 25008KT 2500 TSRA BKN013 FEW015CB 26/25 Q1009 NOSIG
WADD 211700Z 27007KT 8000 TS FEW016CB BKN016 26/26 Q1009 NOSIG RMK CB IN CLIMB OUT
WADD 211630Z 30005KT 8000 TS FEW016CB SCT016 27/25 Q1009 NOSIG RMK CB IN APCH AND CLIMB OUT
WADD 211600Z 33003KT 8000 TS FEW016CB SCT016 27/26 Q1010 NOSIG RMK CB IN APCH AND CLIMB OUT
WADD 211530Z 35003KT 8000 TS FEW016CB SCT016 27/26 Q1010 NOSIG RMK CB IN CLIMB OUT
WADD 211500Z 04004KT 8000 TS FEW016CB SCT016 26/26 Q1010 NOSIG RMK CB IN CLIMB OUT
WADD 211400Z VRB03KT 5000 -TSRA FEW015CB BKN015 26/26 Q1010 TEMPO TL1500 3000 TSRA RMK CB IN APCH AND CLIMB OUT
WADD 211330Z 30005KT 1500 TSRA FEW015CB BKN015 27/26 Q1010 TEMPO TL1500 3000 TSRA
WADD 211300Z 33004KT 240V350 8000 TS FEW016CB BKN016 27/26 Q1009 NOSIG RMK CB IN APCH AND CLIMB OUT
WADD 211230Z 30006KT 8000 TS FEW016CB SCT016 27/26 Q1008 NOSIG RMK CB IN APCH AND CLIMB OUT
WADD 211200Z VRB2KT 8000 FEW016 27/26 Q1008 RERA NOSIG
WADD 211130Z 28009KT 5000 -RA SCT016 26/25 Q1008 NOSIG
WADD 211100Z 29010KT 5000 -TSRA FEW015CB BKN016 25/24 Q1007 TEMPO TL1130 5000 TSRA
WADD 211030Z 30016KT 5000 -TSRA FEW015CB BKN016 26/25 Q1007 TEMPO TL1130 5000 TSRA
WADD 211000Z 26013KT 9999 TS FEW015CB BKN016 29/26 Q1006 TEMPO TL1100 5000 TSRA RMK CB TO OVER THEFIELD
WADD 210930Z 26014KT 9999 FEW016CB SCT017 30/26 Q1006 NOSIG
WADD 210900Z 26014KT 9999 SCT017 30/26 Q1006 NOSIG
WADD 210830Z 26014KT 9999 FEW017 30/26 Q1006 NOSIG
WADD 210800Z 26012KT 9999 FEW017 31/26 Q1006 NOSIG
WADD 210730Z 26011KT 9999 FEW017 31/26 Q1006 NOSIG
WADD 210700Z 25014KT 9999 FEW017 31/26 Q1006 NOSIG
WADD 210630Z 26011KT 9999 FEW017 31/26 Q1006 NOSIG
WADD 210600Z 26011KT 9999 FEW017 31/26 Q1007 NOSIG
WADD 210530Z 26010KT 9999 FEW017 31/26 Q1007 NOSIG
WADD 210500Z 29010KT 9999 FEW017 31/26 Q1007 NOSIG
WADD 210430Z 29011KT 9999 FEW017 31/27 Q1008 NOSIG
WADD 210400Z 28012KT 9999 FEW017 31/26 Q1008 NOSIG
WADD 210330Z 29010KT 9999 FEW017 31/26 Q1008 NOSIG
WADD 210300Z 29010KT 9999 FEW017 31/26 Q1009 NOSIG
WADD 210230Z 30008KT 260V330 9999 FEW017 30/26 Q1009 NOSIG
WADD 210200Z 30007KT 9999 FEW017 30/26 Q1009 NOSIG
WADD 210130Z 26006KT 9999 FEW017 30/26 Q1009 NOSIG
WADD 210100Z 29006KT 260V320 9999 FEW017 29/26 Q1009 NOSIG
WADD 210030Z 27006KT 9999 SCT016 29/26 Q1009 NOSIG
WADD 210000Z 28007KT 9999 SCT016 29/26 Q1008 NOSIG
WADD 202330Z 28009KT 9999 SCT016 28/26 Q1008 NOSIG
WADD 202300Z 29009KT 9999 SCT016 28/25 Q1008 NOSIG
WADD 202230Z 35003KT 9999 SCT016 28/26 Q1008 NOSIG
WADD 202200Z 35003KT 9999 SCT016 27/26 Q1007 NOSIG
WADD 202130Z 36003KT 9999 SCT016 27/26 Q1007 NOSIG
WADD 202100Z 04004KT 9999 SCT017 27/26 Q1007 NOSIG
WADD 202030Z 02004KT 9999 FEW016CB SCT017 27/27 Q1007 NOSIG
WADD 202000Z VRB02KT 9999 FEW016CB SCT017 27/27 Q1006 NOSIG
WADD 201930Z 31005KT 9999 FEW016CB SCT017 28/25 Q1007 NOSIG
WADD 201900Z 31006KT 9999 FEW016CB SCT017 28/26 Q1007 NOSIG
WADD 201830Z 31008KT 9999 FEW016CB SCT017 28/26 Q1007 NOSIG
WADD 201800Z 30008KT 9999 FEW016CB SCT017 28/26 Q1007 NOSIG
WADD 201730Z 36003KT 300V030 9999 FEW016CB SCT017 27/27 Q1008 NOSIG
WADD 201700Z 33004KT 9999 FEW016CB SCT017 27/25 Q1008 NOSIG
WADD 201630Z 36006KT 9999 FEW016CB SCT017 27/26 Q1009 NOSIG
WADD 201600Z VRB02KT 9999 SCT013 27/25 Q1009 NOSIG
WADD 201530Z VRB02KT 8000 BKN016 27/26 Q1009 RERA NOSIG
WADD 201500Z 33006KT 8000 -RA SCT016 27/26 Q1009 TEMPO TL1530 8000 -RA
WADD 201430Z 36003KT 9999 SCT017 27/26 Q1009 NOSIG
WADD 201400Z 34007KT 8000 FEW016CB SCT017 27/26 Q1009 NOSIG
WADD 201330Z 35004KT 5000 -RA FEW016CB BKN017 27/25 Q1009 TEMPO TL1400 5000 RA
WADD 201300Z 32008KT 5000 RA FEW016CB BKN017 27/27 Q1008 TEMPO TL1400 5000 RA
WADD 201230Z 26011KT 9999 FEW017 29/26 Q1008 NOSIG
WADD 201200Z 26007KT 9999 SCT016 29/26 Q1007 NOSIG
WADD 201130Z 26008KT 9999 FEW017 29/26 Q1007 NOSIG
WADD 201100Z 26008KT 9999 FEW016CB FEW017 29/26 Q1007 NOSIG
WADD 201030Z 26008KT 9999 FEW017 29/26 Q1006 NOSIG
WADD 201000Z 26009KT 9999 FEW017 29/26 Q1006 NOSIG
WADD 200930Z 24009KT 9999 FEW017 30/26 Q1006 NOSIG
WADD 200900Z 25010KT 9999 FEW017 30/25 Q1005 NOSIG
WADD 200830Z 24010KT 9999 FEW017 31/26 Q1005 NOSIG
WADD 200800Z 24012KT 9999 FEW017 31/25 Q1005 NOSIG
WADD 200730Z 24011KT 9999 FEW017 31/25 Q1005 NOSIG
WADD 200700Z 25010KT 9999 FEW017 31/26 Q1005 NOSIG
WADD 200630Z 25011KT 9999 FEW017 31/26 Q1005 NOSIG
WADD 200600Z 25011KT 9999 FEW017 31/26 Q1006 NOSIG
WADD 200530Z 26012KT 9999 FEW017 31/26 Q1006 NOSIG
WADD 200500Z 26010KT 9999 FEW017 31/26 Q1007 NOSIG
WADD 200430Z 27011KT 9999 FEW017 31/27 Q1007 NOSIG
WADD 200400Z 28012KT 9999 FEW017 31/26 Q1007 NOSIG
WADD 200330Z 29013KT 9999 FEW017 31/25 Q1008 NOSIG
WADD 200300Z 29010KT 9999 FEW017 30/26 Q1008 NOSIG
WADD 200230Z 31008KT 9999 FEW017 29/25 Q1008 NOSIG
WADD 200200Z 30007KT 9999 FEW017 29/26 Q1008 NOSIG
WADD 200130Z 29007KT 9999 FEW017 29/25 Q1009 NOSIG
WADD 200100Z VRB02KT 9999 FEW017 29/25 Q1009 NOSIG